createdAt,value
2022-08-21T00:00:18.386Z,100.00
2022-08-21T00:01:19.195Z,100.00
2022-08-21T00:02:19.501Z,100.00
2022-08-21T00:03:17.081Z,100.00
2022-08-21T00:04:16.138Z,100.00
2022-08-21T00:05:19.711Z,100.00
2022-08-21T00:06:17.533Z,100.00
2022-08-21T00:07:14.713Z,100.00
2022-08-21T00:08:12.214Z,100.00
2022-08-21T00:09:09.769Z,100.00
2022-08-21T00:10:07.356Z,100.00
2022-08-21T00:11:05.627Z,100.00
2022-08-21T00:12:02.620Z,100.00
2022-08-21T00:13:03.321Z,100.00
2022-08-21T00:14:00.334Z,100.00
2022-08-21T00:14:58.214Z,100.00
2022-08-21T00:15:55.387Z,100.00
2022-08-21T00:16:52.466Z,100.00
2022-08-21T00:17:51.608Z,100.00
2022-08-21T00:18:48.520Z,100.00
2022-08-21T00:19:45.326Z,100.00
2022-08-21T00:20:43.705Z,100.00
2022-08-21T00:21:40.746Z,100.00
2022-08-21T00:22:41.336Z,100.00
2022-08-21T00:23:38.130Z,100.00
2022-08-21T00:24:34.874Z,100.00
2022-08-21T00:25:32.415Z,100.00
2022-08-21T00:26:29.411Z,100.00
2022-08-21T00:27:26.411Z,100.00
2022-08-21T00:28:23.166Z,100.00
2022-08-21T00:29:20.610Z,100.00
2022-08-21T00:30:22.839Z,100.00
2022-08-21T00:31:20.242Z,100.00
2022-08-21T00:32:28.123Z,100.00
2022-08-21T00:33:26.453Z,100.00
2022-08-21T00:34:23.177Z,100.00
2022-08-21T00:35:25.554Z,100.00
2022-08-21T00:36:22.283Z,100.00
2022-08-21T00:37:19.389Z,100.00
2022-08-21T00:38:16.262Z,100.00
2022-08-21T00:39:13.206Z,100.00
2022-08-21T00:40:16.187Z,100.00
2022-08-21T00:41:21.155Z,100.00
2022-08-21T00:42:31.286Z,100.00
2022-08-21T00:43:32.839Z,100.00
2022-08-21T00:44:29.571Z,100.00
2022-08-21T00:45:28.851Z,100.00
2022-08-21T00:46:28.408Z,100.00
2022-08-21T00:47:26.299Z,100.00
2022-08-21T00:48:24.384Z,100.00
2022-08-21T00:49:21.099Z,100.00
2022-08-21T00:50:22.006Z,100.00
2022-08-21T00:51:26.491Z,100.00
2022-08-21T00:52:30.781Z,100.00
2022-08-21T00:53:30.050Z,100.00
2022-08-21T00:54:30.880Z,100.00
2022-08-21T00:55:29.328Z,100.00
2022-08-21T00:56:29.737Z,100.00
2022-08-21T00:57:34.682Z,100.00
2022-08-21T00:58:33.878Z,100.00
2022-08-21T00:59:36.296Z,100.00
2022-08-21T01:00:39.418Z,100.00
2022-08-21T01:01:36.900Z,100.00
2022-08-21T01:02:33.812Z,100.00
2022-08-21T01:03:30.559Z,100.00
2022-08-21T01:04:27.521Z,100.00
2022-08-21T01:05:24.440Z,100.00
2022-08-21T01:06:21.349Z,100.00
2022-08-21T01:07:18.824Z,100.00
2022-08-21T01:08:19.827Z,100.00
2022-08-21T01:09:16.637Z,100.00
2022-08-21T01:10:16.653Z,100.00
2022-08-21T01:11:21.589Z,100.00
2022-08-21T01:12:19.639Z,100.00
2022-08-21T01:13:19.262Z,100.00
2022-08-21T01:14:19.825Z,100.00
2022-08-21T01:15:20.240Z,100.00
2022-08-21T01:16:21.441Z,100.00
2022-08-21T01:17:20.456Z,100.00
2022-08-21T01:18:18.265Z,100.00
2022-08-21T01:19:18.158Z,100.00
2022-08-21T01:20:14.909Z,100.00
2022-08-21T01:21:21.811Z,100.00
2022-08-21T01:22:18.650Z,100.00
2022-08-21T01:23:15.428Z,100.00
2022-08-21T01:24:13.135Z,100.00
2022-08-21T01:25:12.193Z,100.00
2022-08-21T01:26:10.666Z,100.00
2022-08-21T01:27:08.096Z,100.00
2022-08-21T01:28:15.290Z,100.00
2022-08-21T01:29:26.898Z,100.00
2022-08-21T01:30:27.437Z,100.00
2022-08-21T01:31:27.506Z,100.00
2022-08-21T01:32:24.919Z,100.00
2022-08-21T01:33:25.423Z,100.00
2022-08-21T01:34:22.270Z,100.00
2022-08-21T01:35:20.951Z,100.00
2022-08-21T01:36:17.719Z,100.00
2022-08-21T01:37:15.456Z,100.00
2022-08-21T01:38:14.882Z,100.00
2022-08-21T01:39:12.575Z,100.00
2022-08-21T01:40:10.344Z,100.00
2022-08-21T01:41:07.900Z,100.00
2022-08-21T01:42:05.399Z,100.00
2022-08-21T01:43:02.177Z,100.00
2022-08-21T01:43:58.977Z,100.00
2022-08-21T01:44:56.297Z,100.00
2022-08-21T01:45:53.048Z,100.00
2022-08-21T01:46:50.395Z,100.00
2022-08-21T01:48:05.890Z,100.00
2022-08-21T01:49:04.422Z,100.00
2022-08-21T01:50:01.307Z,100.00
2022-08-21T01:50:58.035Z,100.00
2022-08-21T01:51:54.937Z,100.00
2022-08-21T01:52:52.915Z,100.00
2022-08-21T01:53:49.725Z,100.00
2022-08-21T01:54:46.467Z,100.00
2022-08-21T01:55:51.852Z,100.00
2022-08-21T01:56:53.092Z,100.00
2022-08-21T01:57:51.253Z,100.00
2022-08-21T01:58:48.944Z,100.00
2022-08-21T01:59:45.687Z,100.00
2022-08-21T02:00:42.778Z,100.00
2022-08-21T02:01:43.463Z,100.00
2022-08-21T02:02:41.909Z,100.00
2022-08-21T02:03:39.506Z,100.00
2022-08-21T02:04:36.421Z,100.00
2022-08-21T02:05:33.464Z,100.00
2022-08-21T02:06:30.209Z,100.00
2022-08-21T02:07:27.281Z,100.00
2022-08-21T02:08:24.716Z,100.00
2022-08-21T02:09:22.686Z,100.00
2022-08-21T02:10:33.050Z,100.00
2022-08-21T02:11:29.830Z,100.00
2022-08-21T02:12:26.676Z,100.00
2022-08-21T02:13:23.490Z,100.00
2022-08-21T02:14:32.057Z,100.00
2022-08-21T02:15:30.818Z,100.00
2022-08-21T02:16:27.679Z,100.00
2022-08-21T02:17:24.460Z,100.00
2022-08-21T02:18:21.333Z,100.00
2022-08-21T02:19:18.473Z,100.00
2022-08-21T02:20:25.062Z,100.00
2022-08-21T02:21:21.794Z,100.00
2022-08-21T02:22:18.574Z,100.00
2022-08-21T02:23:15.721Z,100.00
2022-08-21T02:24:13.663Z,100.00
2022-08-21T02:25:11.277Z,100.00
2022-08-21T02:26:09.158Z,100.00
2022-08-21T02:27:05.921Z,100.00
2022-08-21T02:28:12.556Z,100.00
2022-08-21T02:29:09.285Z,100.00
2022-08-21T02:30:06.493Z,100.00
2022-08-21T02:31:04.219Z,100.00
2022-08-21T02:32:00.934Z,100.00
2022-08-21T02:33:00.479Z,100.00
2022-08-21T02:33:57.241Z,100.00
2022-08-21T02:34:54.807Z,100.00
2022-08-21T02:35:53.996Z,100.00
2022-08-21T02:36:58.732Z,100.00
2022-08-21T02:38:00.431Z,100.00
2022-08-21T02:38:57.521Z,100.00
2022-08-21T02:39:54.277Z,100.00
2022-08-21T02:40:52.752Z,100.00
2022-08-21T02:41:49.467Z,100.00
2022-08-21T02:42:46.743Z,100.00
2022-08-21T02:43:43.672Z,100.00
2022-08-21T02:44:40.390Z,100.00
2022-08-21T02:45:38.679Z,100.00
2022-08-21T02:46:35.522Z,100.00
2022-08-21T02:47:32.246Z,100.00
2022-08-21T02:48:31.683Z,100.00
2022-08-21T02:49:28.395Z,100.00
2022-08-21T02:50:29.584Z,100.00
2022-08-21T02:51:26.929Z,100.00
2022-08-21T02:52:24.409Z,100.00
2022-08-21T02:53:21.842Z,100.00
2022-08-21T02:54:18.570Z,100.00
2022-08-21T02:55:15.358Z,100.00
2022-08-21T02:56:15.348Z,100.00
2022-08-21T02:57:12.105Z,100.00
2022-08-21T02:58:09.313Z,100.00
2022-08-21T02:59:06.048Z,100.00
2022-08-21T03:00:05.458Z,100.00
2022-08-21T03:01:02.965Z,100.00
2022-08-21T03:01:59.968Z,100.00
2022-08-21T03:02:58.289Z,100.00
2022-08-21T03:03:55.214Z,100.00
2022-08-21T03:04:52.011Z,100.00
2022-08-21T03:05:49.822Z,100.00
2022-08-21T03:06:46.551Z,100.00
2022-08-21T03:07:45.238Z,100.00
2022-08-21T03:08:42.874Z,100.00
2022-08-21T03:09:39.617Z,100.00
2022-08-21T03:10:53.897Z,100.00
2022-08-21T03:11:52.332Z,100.00
2022-08-21T03:12:50.263Z,100.00
2022-08-21T03:13:47.256Z,100.00
2022-08-21T03:14:44.116Z,100.00
2022-08-21T03:15:41.646Z,100.00
2022-08-21T03:16:38.468Z,100.00
2022-08-21T03:17:35.579Z,100.00
2022-08-21T03:18:32.327Z,100.00
2022-08-21T03:19:29.052Z,100.00
2022-08-21T03:20:29.259Z,100.00
2022-08-21T03:21:26.091Z,100.00
2022-08-21T03:22:22.809Z,100.00
2022-08-21T03:23:19.739Z,100.00
2022-08-21T03:24:19.607Z,100.00
2022-08-21T03:25:18.874Z,100.00
2022-08-21T03:26:19.772Z,100.00
2022-08-21T03:27:16.596Z,100.00
2022-08-21T03:28:18.118Z,100.00
2022-08-21T03:29:14.894Z,100.00
2022-08-21T03:30:12.661Z,100.00
2022-08-21T03:31:09.704Z,100.00
2022-08-21T03:32:10.205Z,100.00
2022-08-21T03:33:06.957Z,100.00
2022-08-21T03:34:03.693Z,100.00
2022-08-21T03:35:01.324Z,100.00
2022-08-21T03:36:03.008Z,100.00
2022-08-21T03:36:59.868Z,100.00
2022-08-21T03:37:57.249Z,100.00
2022-08-21T03:38:54.010Z,100.00
2022-08-21T03:39:51.131Z,100.00
2022-08-21T03:40:47.953Z,100.00
2022-08-21T03:41:44.779Z,100.00
2022-08-21T03:42:41.523Z,100.00
2022-08-21T03:43:39.492Z,100.00
2022-08-21T03:44:36.586Z,100.00
2022-08-21T03:45:33.526Z,100.00
2022-08-21T03:46:30.296Z,100.00
2022-08-21T03:47:27.050Z,100.00
2022-08-21T03:48:24.253Z,100.00
2022-08-21T03:49:20.969Z,100.00
2022-08-21T03:50:18.301Z,100.00
2022-08-21T03:51:15.074Z,100.00
2022-08-21T03:52:11.874Z,100.00
2022-08-21T03:53:16.604Z,100.00
2022-08-21T03:54:14.023Z,100.00
2022-08-21T03:55:10.850Z,100.00
2022-08-21T03:56:08.330Z,100.00
2022-08-21T03:57:05.650Z,100.00
2022-08-21T03:58:16.973Z,100.00
2022-08-21T03:59:14.685Z,100.00
2022-08-21T04:00:13.292Z,100.00
2022-08-21T04:01:10.065Z,100.00
2022-08-21T04:02:08.450Z,100.00
2022-08-21T04:03:05.508Z,100.00
2022-08-21T04:04:02.476Z,100.00
2022-08-21T04:04:59.223Z,100.00
2022-08-21T04:05:56.000Z,100.00
2022-08-21T04:06:52.906Z,100.00
2022-08-21T04:07:50.186Z,100.00
2022-08-21T04:08:47.169Z,100.00
2022-08-21T04:09:44.171Z,100.00
2022-08-21T04:10:44.164Z,100.00
2022-08-21T04:11:40.920Z,100.00
2022-08-21T04:12:37.709Z,100.00
2022-08-21T04:13:35.025Z,100.00
2022-08-21T04:14:39.981Z,100.00
2022-08-21T04:15:37.382Z,100.00
2022-08-21T04:16:34.141Z,100.00
2022-08-21T04:17:30.863Z,100.00
2022-08-21T04:18:27.852Z,100.00
2022-08-21T04:19:24.909Z,100.00
2022-08-21T04:20:23.061Z,100.00
2022-08-21T04:21:19.859Z,100.00
2022-08-21T04:22:20.970Z,100.00
2022-08-21T04:23:23.972Z,100.00
2022-08-21T04:24:21.435Z,100.00
2022-08-21T04:25:20.949Z,100.00
2022-08-21T04:26:17.968Z,100.00
2022-08-21T04:27:14.705Z,100.00
2022-08-21T04:28:11.611Z,100.00
2022-08-21T04:29:08.470Z,100.00
2022-08-21T04:30:10.031Z,100.00
2022-08-21T04:31:06.765Z,100.00
2022-08-21T04:32:03.865Z,100.00
2022-08-21T04:33:00.880Z,100.00
2022-08-21T04:33:57.922Z,100.00
2022-08-21T04:35:04.926Z,100.00
2022-08-21T04:36:02.891Z,100.00
2022-08-21T04:36:59.642Z,100.00
2022-08-21T04:37:57.315Z,100.00
2022-08-21T04:38:54.191Z,100.00
2022-08-21T04:39:53.537Z,100.00
2022-08-21T04:40:51.365Z,100.00
2022-08-21T04:41:48.119Z,100.00
2022-08-21T04:42:54.538Z,100.00
2022-08-21T04:43:51.334Z,100.00
2022-08-21T04:44:50.051Z,100.00
2022-08-21T04:45:50.115Z,100.00
2022-08-21T04:46:46.847Z,100.00
2022-08-21T04:47:52.763Z,100.00
2022-08-21T04:48:50.260Z,100.00
2022-08-21T04:49:47.749Z,100.00
2022-08-21T04:50:52.088Z,100.00
2022-08-21T04:51:49.083Z,100.00
2022-08-21T04:52:47.680Z,100.00
2022-08-21T04:54:00.077Z,100.00
2022-08-21T04:54:56.923Z,100.00
2022-08-21T04:55:57.304Z,100.00
2022-08-21T04:57:00.741Z,100.00
2022-08-21T04:57:58.505Z,100.00
2022-08-21T04:59:00.802Z,100.00
2022-08-21T04:59:57.709Z,100.00
2022-08-21T05:00:57.533Z,100.00
2022-08-21T05:01:58.759Z,100.00
2022-08-21T05:03:00.401Z,100.00
2022-08-21T05:04:00.850Z,100.00
2022-08-21T05:04:58.744Z,100.00
2022-08-21T05:05:56.077Z,100.00
2022-08-21T05:06:58.500Z,100.00
2022-08-21T05:07:55.422Z,100.00
2022-08-21T05:09:01.662Z,100.00
2022-08-21T05:10:01.215Z,100.00
2022-08-21T05:11:00.473Z,100.00
2022-08-21T05:11:58.777Z,100.00
2022-08-21T05:12:56.898Z,100.00
2022-08-21T05:13:56.358Z,100.00
2022-08-21T05:14:54.287Z,100.00
2022-08-21T05:15:51.050Z,100.00
2022-08-21T05:16:48.565Z,100.00
2022-08-21T05:17:53.755Z,100.00
2022-08-21T05:18:57.559Z,100.00
2022-08-21T05:19:54.339Z,100.00
2022-08-21T05:20:51.690Z,100.00
2022-08-21T05:21:49.002Z,100.00
2022-08-21T05:22:46.153Z,100.00
2022-08-21T05:23:43.726Z,100.00
2022-08-21T05:24:40.483Z,100.00
2022-08-21T05:25:37.230Z,100.00
2022-08-21T05:26:45.502Z,100.00
2022-08-21T05:27:43.480Z,100.00
2022-08-21T05:28:40.231Z,100.00
2022-08-21T05:29:38.026Z,100.00
2022-08-21T05:30:36.160Z,100.00
2022-08-21T05:31:33.236Z,100.00
2022-08-21T05:32:29.993Z,100.00
2022-08-21T05:33:27.012Z,100.00
2022-08-21T05:34:24.628Z,100.00
2022-08-21T05:35:21.550Z,100.00
2022-08-21T05:36:19.132Z,100.00
2022-08-21T05:37:15.905Z,100.00
2022-08-21T05:38:16.731Z,100.00
2022-08-21T05:39:15.501Z,100.00
2022-08-21T05:40:21.138Z,100.00
2022-08-21T05:41:19.654Z,100.00
2022-08-21T05:42:16.469Z,100.00
2022-08-21T05:43:13.362Z,100.00
2022-08-21T05:44:10.576Z,100.00
2022-08-21T05:45:08.315Z,100.00
2022-08-21T05:46:06.369Z,100.00
2022-08-21T05:47:09.489Z,100.00
2022-08-21T05:48:10.643Z,100.00
2022-08-21T05:49:07.466Z,100.00
2022-08-21T05:50:05.717Z,100.00
2022-08-21T05:51:16.686Z,100.00
2022-08-21T05:52:19.050Z,100.00
2022-08-21T05:53:19.672Z,100.00
2022-08-21T05:54:16.450Z,100.00
2022-08-21T05:55:14.754Z,100.00
2022-08-21T05:56:14.074Z,100.00
2022-08-21T05:57:10.830Z,100.00
2022-08-21T05:58:07.765Z,100.00
2022-08-21T05:59:08.746Z,100.00
2022-08-21T06:00:06.348Z,100.00
2022-08-21T06:01:04.676Z,100.00
2022-08-21T06:02:05.622Z,100.00
2022-08-21T06:03:05.530Z,100.00
2022-08-21T06:04:02.405Z,100.00
2022-08-21T06:04:59.525Z,100.00
2022-08-21T06:05:56.986Z,100.00
2022-08-21T06:06:53.779Z,100.00
2022-08-21T06:07:50.566Z,100.00
2022-08-21T06:08:47.466Z,100.00
2022-08-21T06:09:44.334Z,100.00
2022-08-21T06:10:41.825Z,100.00
2022-08-21T06:11:38.572Z,100.00
2022-08-21T06:12:35.513Z,100.00
2022-08-21T06:13:33.556Z,100.00
2022-08-21T06:14:30.361Z,100.00
2022-08-21T06:15:27.573Z,100.00
2022-08-21T06:16:24.638Z,100.00
2022-08-21T06:17:21.374Z,100.00
2022-08-21T06:18:18.307Z,100.00
2022-08-21T06:19:15.097Z,100.00
2022-08-21T06:20:11.923Z,100.00
2022-08-21T06:21:09.669Z,100.00
2022-08-21T06:22:06.415Z,100.00
2022-08-21T06:23:03.490Z,100.00
2022-08-21T06:24:00.298Z,100.00
2022-08-21T06:24:57.041Z,100.00
2022-08-21T06:25:53.859Z,100.00
2022-08-21T06:26:53.840Z,100.00
2022-08-21T06:27:50.626Z,100.00
2022-08-21T06:28:47.659Z,100.00
2022-08-21T06:29:46.105Z,100.00
2022-08-21T06:30:42.868Z,100.00
2022-08-21T06:31:40.442Z,100.00
2022-08-21T06:32:38.734Z,100.00
2022-08-21T06:33:35.541Z,100.00
2022-08-21T06:34:32.294Z,100.00
2022-08-21T06:35:30.079Z,100.00
2022-08-21T06:36:27.286Z,100.00
2022-08-21T06:37:24.070Z,100.00
2022-08-21T06:38:20.978Z,100.00
2022-08-21T06:39:25.356Z,100.00
2022-08-21T06:40:29.794Z,100.00
2022-08-21T06:41:27.100Z,100.00
2022-08-21T06:42:27.915Z,100.00
2022-08-21T06:43:37.874Z,100.00
2022-08-21T06:44:36.717Z,100.00
2022-08-21T06:45:33.488Z,100.00
2022-08-21T06:46:32.302Z,100.00
2022-08-21T06:47:29.036Z,100.00
2022-08-21T06:48:25.889Z,100.00
2022-08-21T06:49:22.647Z,100.00
2022-08-21T06:50:20.637Z,100.00
2022-08-21T06:51:17.458Z,100.00
2022-08-21T06:52:14.617Z,100.00
2022-08-21T06:53:16.956Z,100.00
2022-08-21T06:54:13.753Z,100.00
2022-08-21T06:55:11.321Z,100.00
2022-08-21T06:56:10.422Z,100.00
2022-08-21T06:57:07.658Z,100.00
2022-08-21T06:58:06.121Z,100.00
2022-08-21T06:59:02.960Z,100.00
2022-08-21T06:59:59.782Z,100.00
2022-08-21T07:01:00.767Z,100.00
2022-08-21T07:01:59.224Z,100.00
2022-08-21T07:02:56.301Z,100.00
2022-08-21T07:03:53.434Z,100.00
2022-08-21T07:04:50.207Z,100.00
2022-08-21T07:05:47.011Z,100.00
2022-08-21T07:06:44.070Z,100.00
2022-08-21T07:07:40.878Z,100.00
2022-08-21T07:08:39.059Z,100.00
2022-08-21T07:09:35.798Z,100.00
2022-08-21T07:10:32.632Z,100.00
2022-08-21T07:11:29.634Z,100.00
2022-08-21T07:12:44.888Z,100.00
2022-08-21T07:13:41.685Z,100.00
2022-08-21T07:14:38.496Z,100.00
2022-08-21T07:15:35.230Z,100.00
2022-08-21T07:16:32.178Z,100.00
2022-08-21T07:17:28.924Z,100.00
2022-08-21T07:18:25.733Z,100.00
2022-08-21T07:19:22.589Z,100.00
2022-08-21T07:20:19.341Z,100.00
2022-08-21T07:21:17.294Z,100.00
2022-08-21T07:22:20.887Z,100.00
2022-08-21T07:23:33.440Z,100.00
2022-08-21T07:24:30.285Z,100.00
2022-08-21T07:25:27.134Z,100.00
2022-08-21T07:26:25.303Z,100.00
2022-08-21T07:27:22.450Z,100.00
2022-08-21T07:28:19.959Z,100.00
2022-08-21T07:29:16.901Z,100.00
2022-08-21T07:30:13.786Z,100.00
2022-08-21T07:31:15.784Z,100.00
2022-08-21T07:32:13.327Z,100.00
2022-08-21T07:33:10.172Z,100.00
2022-08-21T07:34:07.188Z,100.00
2022-08-21T07:35:04.458Z,100.00
2022-08-21T07:36:01.336Z,100.00
2022-08-21T07:36:59.023Z,100.00
2022-08-21T07:37:55.861Z,100.00
2022-08-21T07:38:53.110Z,100.00
2022-08-21T07:39:50.155Z,100.00
2022-08-21T07:40:50.074Z,100.00
2022-08-21T07:41:46.873Z,100.00
2022-08-21T07:42:52.286Z,100.00
2022-08-21T07:43:49.198Z,100.00
2022-08-21T07:44:49.606Z,100.00
2022-08-21T07:45:52.869Z,100.00
2022-08-21T07:46:49.875Z,100.00
2022-08-21T07:47:47.635Z,100.00
2022-08-21T07:48:44.431Z,100.00
2022-08-21T07:49:41.229Z,100.00
2022-08-21T07:50:38.323Z,100.00
2022-08-21T07:51:35.594Z,100.00
2022-08-21T07:52:33.532Z,100.00
2022-08-21T07:53:30.378Z,100.00
2022-08-21T07:54:33.444Z,100.00
2022-08-21T07:55:31.480Z,100.00
2022-08-21T07:56:31.154Z,100.00
2022-08-21T07:57:27.884Z,100.00
2022-08-21T07:58:24.799Z,100.00
2022-08-21T07:59:21.771Z,100.00
2022-08-21T08:00:22.979Z,100.00
2022-08-21T08:01:20.082Z,100.00
2022-08-21T08:02:28.317Z,100.00
2022-08-21T08:03:28.757Z,100.00
2022-08-21T08:04:33.569Z,100.00
2022-08-21T08:05:32.932Z,100.00
2022-08-21T08:06:30.438Z,100.00
2022-08-21T08:07:27.334Z,100.00
2022-08-21T08:08:24.727Z,100.00
2022-08-21T08:09:21.658Z,100.00
2022-08-21T08:10:20.975Z,100.00
2022-08-21T08:11:20.505Z,100.00
2022-08-21T08:12:17.573Z,100.00
2022-08-21T08:13:14.573Z,100.00
2022-08-21T08:14:12.241Z,100.00
2022-08-21T08:15:13.818Z,100.00
2022-08-21T08:16:11.510Z,100.00
2022-08-21T08:17:08.560Z,100.00
2022-08-21T08:18:05.754Z,100.00
2022-08-21T08:19:02.787Z,100.00
2022-08-21T08:20:04.430Z,100.00
2022-08-21T08:21:01.337Z,100.00
2022-08-21T08:21:58.094Z,100.00
2022-08-21T08:22:55.694Z,100.00
2022-08-21T08:23:53.172Z,100.00
2022-08-21T08:24:50.371Z,100.00
2022-08-21T08:25:47.521Z,100.00
2022-08-21T08:26:44.270Z,100.00
2022-08-21T08:27:41.322Z,100.00
2022-08-21T08:28:38.194Z,100.00
2022-08-21T08:29:34.997Z,100.00
2022-08-21T08:30:33.193Z,100.00
2022-08-21T08:31:30.003Z,100.00
2022-08-21T08:32:26.863Z,100.00
2022-08-21T08:33:23.619Z,100.00
2022-08-21T08:34:25.398Z,100.00
2022-08-21T08:35:24.372Z,100.00
2022-08-21T08:36:34.515Z,100.00
2022-08-21T08:37:34.499Z,100.00
2022-08-21T08:38:31.545Z,100.00
2022-08-21T08:39:29.742Z,100.00
2022-08-21T08:40:39.244Z,100.00
2022-08-21T08:41:42.849Z,100.00
2022-08-21T08:42:40.542Z,100.00
2022-08-21T08:43:37.551Z,100.00
2022-08-21T08:44:35.521Z,100.00
2022-08-21T08:45:38.483Z,100.00
2022-08-21T08:46:53.626Z,100.00
2022-08-21T08:47:59.775Z,100.00
2022-08-21T08:49:14.451Z,100.00
2022-08-21T08:50:26.753Z,100.00
2022-08-21T08:51:48.450Z,100.00
2022-08-21T08:52:52.818Z,100.00
2022-08-21T08:54:03.692Z,100.00
2022-08-21T08:55:13.398Z,100.00
2022-08-21T08:56:11.936Z,100.00
2022-08-21T08:57:15.279Z,100.00
2022-08-21T08:58:26.148Z,100.00
2022-08-21T08:59:31.457Z,100.00
2022-08-21T09:00:32.079Z,100.00
2022-08-21T09:01:29.172Z,100.00
2022-08-21T09:02:28.505Z,100.00
2022-08-21T09:03:27.825Z,100.00
2022-08-21T09:04:29.750Z,100.00
2022-08-21T09:05:47.496Z,100.00
2022-08-21T09:07:00.984Z,100.00
2022-08-21T09:08:19.261Z,100.00
2022-08-21T09:09:49.751Z,100.00
2022-08-21T09:10:58.532Z,100.00
2022-08-21T09:12:26.235Z,100.00
2022-08-21T09:13:39.331Z,100.00
2022-08-21T09:14:42.073Z,100.00
2022-08-21T09:15:53.120Z,100.00
2022-08-21T09:17:16.606Z,100.00
2022-08-21T09:18:23.779Z,100.00
2022-08-21T09:19:44.649Z,100.00
2022-08-21T09:20:59.436Z,100.00
2022-08-21T09:22:15.001Z,100.00
2022-08-21T09:23:26.710Z,100.00
2022-08-21T09:24:23.359Z,98.58
2022-08-21T09:25:26.655Z,96.52
2022-08-21T09:26:31.665Z,99.33
2022-08-21T09:27:32.434Z,100.00
2022-08-21T09:28:42.052Z,100.00
2022-08-21T09:29:42.329Z,99.49
2022-08-21T09:30:42.526Z,100.00
2022-08-21T09:31:39.385Z,100.00
2022-08-21T09:32:39.770Z,100.00
2022-08-21T09:33:36.590Z,100.00
2022-08-21T09:34:33.449Z,100.00
2022-08-21T09:35:30.339Z,100.00
2022-08-21T09:36:44.031Z,100.00
2022-08-21T09:37:59.217Z,100.00
2022-08-21T09:38:56.243Z,100.00
2022-08-21T09:39:53.123Z,100.00
2022-08-21T09:40:59.333Z,100.00
2022-08-21T09:42:24.724Z,99.54
2022-08-21T09:43:25.819Z,99.04
2022-08-21T09:44:28.191Z,100.00
2022-08-21T09:45:25.031Z,99.69
2022-08-21T09:46:26.182Z,96.60
2022-08-21T09:47:27.562Z,96.54
2022-08-21T09:48:27.167Z,98.49
2022-08-21T09:49:32.603Z,99.33
2022-08-21T09:50:30.186Z,100.00
2022-08-21T09:51:31.639Z,100.00
2022-08-21T09:52:28.612Z,100.00
2022-08-21T09:53:35.007Z,100.00
2022-08-21T09:54:38.089Z,100.00
2022-08-21T09:56:06.318Z,99.22
2022-08-21T09:57:29.121Z,97.99
2022-08-21T09:58:34.702Z,97.04
2022-08-21T09:59:37.155Z,96.95
2022-08-21T10:00:36.788Z,98.74
2022-08-21T10:01:44.249Z,100.00
2022-08-21T10:02:40.985Z,99.46
2022-08-21T10:03:37.754Z,98.71
2022-08-21T10:04:37.312Z,98.19
2022-08-21T10:05:34.107Z,99.10
2022-08-21T10:06:30.908Z,97.38
2022-08-21T10:07:31.212Z,95.67
2022-08-21T10:08:29.631Z,94.23
2022-08-21T10:09:26.978Z,94.82
2022-08-21T10:10:29.761Z,93.49
2022-08-21T10:11:30.547Z,89.82
2022-08-21T10:12:42.277Z,90.38
2022-08-21T10:14:02.695Z,91.52
2022-08-21T10:15:14.547Z,89.35
2022-08-21T10:16:20.307Z,89.33
2022-08-21T10:17:17.003Z,90.66
2022-08-21T10:18:49.045Z,89.14
2022-08-21T10:20:00.677Z,92.17
2022-08-21T10:21:10.175Z,92.49
2022-08-21T10:22:42.362Z,90.83
2022-08-21T10:23:53.983Z,87.27
2022-08-21T10:24:50.707Z,87.66
2022-08-21T10:26:13.185Z,89.19
2022-08-21T10:27:24.410Z,89.07
2022-08-21T10:28:32.828Z,89.12
2022-08-21T10:30:01.612Z,88.21
2022-08-21T10:31:16.986Z,88.16
2022-08-21T10:32:59.167Z,89.79
2022-08-21T10:34:08.092Z,89.97
2022-08-21T10:35:19.702Z,89.99
2022-08-21T10:36:48.349Z,90.16
2022-08-21T10:38:09.242Z,91.15
2022-08-21T10:39:35.278Z,92.46
2022-08-21T10:40:32.741Z,88.46
2022-08-21T10:41:42.242Z,89.17
2022-08-21T10:42:48.938Z,90.55
2022-08-21T10:44:16.125Z,88.39
2022-08-21T10:45:33.894Z,90.02
2022-08-21T10:46:37.622Z,92.39
2022-08-21T10:47:42.950Z,91.45
2022-08-21T10:48:59.675Z,89.37
2022-08-21T10:50:02.851Z,89.64
2022-08-21T10:51:10.773Z,89.97
2022-08-21T10:52:35.047Z,89.27
2022-08-21T10:54:18.181Z,85.17
2022-08-21T10:55:26.929Z,85.49
2022-08-21T10:56:27.884Z,86.62
2022-08-21T10:58:03.155Z,88.61
2022-08-21T10:59:27.446Z,87.17
2022-08-21T11:00:34.695Z,89.07
2022-08-21T11:01:46.446Z,90.01
2022-08-21T11:02:54.658Z,91.62
2022-08-21T11:04:10.314Z,91.80
2022-08-21T11:05:13.108Z,91.80
2022-08-21T11:06:24.148Z,90.69
2022-08-21T11:07:34.017Z,89.33
2022-08-21T11:08:43.494Z,86.64
2022-08-21T11:09:46.815Z,86.55
2022-08-21T11:10:59.457Z,86.86
2022-08-21T11:12:13.490Z,86.16
2022-08-21T11:13:31.122Z,85.97
2022-08-21T11:14:49.895Z,86.99
2022-08-21T11:16:12.203Z,85.10
2022-08-21T11:17:13.241Z,84.62
2022-08-21T11:18:15.938Z,86.35
2022-08-21T11:19:39.540Z,86.54
2022-08-21T11:20:47.546Z,86.86
2022-08-21T11:22:02.748Z,86.91
2022-08-21T11:23:26.091Z,87.26
2022-08-21T11:24:45.595Z,86.75
2022-08-21T11:25:50.284Z,85.37
2022-08-21T11:26:54.839Z,85.91
2022-08-21T11:28:22.796Z,86.11
2022-08-21T11:29:31.097Z,86.39
2022-08-21T11:30:43.640Z,85.93
2022-08-21T11:31:49.163Z,86.12
2022-08-21T11:32:59.503Z,85.80
2022-08-21T11:34:25.413Z,86.27
2022-08-21T11:35:34.228Z,85.66
2022-08-21T11:36:58.355Z,85.66
2022-08-21T11:37:58.022Z,87.62
2022-08-21T11:39:01.285Z,85.18
2022-08-21T11:40:16.836Z,86.54
2022-08-21T11:41:26.162Z,84.87
2022-08-21T11:42:52.378Z,83.19
2022-08-21T11:44:03.078Z,82.79
2022-08-21T11:45:30.162Z,81.42
2022-08-21T11:46:47.071Z,82.59
2022-08-21T11:48:05.275Z,81.76
2022-08-21T11:49:20.044Z,83.18
2022-08-21T11:50:34.237Z,82.97
2022-08-21T11:51:39.204Z,84.73
2022-08-21T11:52:56.455Z,84.60
2022-08-21T11:54:14.116Z,82.54
2022-08-21T11:55:49.489Z,84.71
2022-08-21T11:57:05.120Z,83.87
2022-08-21T11:58:20.046Z,82.40
2022-08-21T11:59:37.577Z,81.86
2022-08-21T12:00:44.752Z,82.96
2022-08-21T12:01:46.292Z,84.25
2022-08-21T12:02:57.538Z,82.36
2022-08-21T12:04:09.522Z,83.18
2022-08-21T12:05:12.477Z,82.20
2022-08-21T12:06:13.126Z,83.28
2022-08-21T12:07:18.206Z,83.96
2022-08-21T12:08:30.522Z,84.50
2022-08-21T12:09:35.495Z,82.36
2022-08-21T12:10:36.440Z,82.84
2022-08-21T12:11:46.181Z,83.37
2022-08-21T12:12:45.572Z,82.70
2022-08-21T12:14:12.223Z,84.61
2022-08-21T12:15:28.323Z,82.65
2022-08-21T12:16:38.280Z,83.26
2022-08-21T12:17:41.313Z,82.93
2022-08-21T12:18:39.073Z,82.35
2022-08-21T12:19:36.849Z,82.13
2022-08-21T12:20:36.221Z,83.79
2022-08-21T12:21:34.172Z,82.24
2022-08-21T12:22:41.835Z,81.97
2022-08-21T12:24:02.390Z,82.07
2022-08-21T12:25:11.126Z,81.40
2022-08-21T12:26:29.135Z,79.79
2022-08-21T12:27:50.409Z,80.38
2022-08-21T12:28:48.275Z,78.81
2022-08-21T12:29:51.622Z,79.30
2022-08-21T12:30:49.808Z,80.26
2022-08-21T12:31:55.421Z,78.70
2022-08-21T12:32:57.515Z,78.12
2022-08-21T12:34:02.105Z,77.75
2022-08-21T12:35:23.216Z,79.19
2022-08-21T12:36:28.238Z,78.73
2022-08-21T12:37:50.846Z,79.07
2022-08-21T12:38:47.519Z,78.56
2022-08-21T12:39:48.433Z,79.54
2022-08-21T12:41:23.746Z,76.83
2022-08-21T12:42:44.860Z,75.32
2022-08-21T12:43:52.608Z,77.04
2022-08-21T12:45:18.427Z,76.75
2022-08-21T12:46:22.570Z,78.11
2022-08-21T12:47:31.960Z,77.49
2022-08-21T12:48:45.214Z,76.46
2022-08-21T12:50:10.375Z,75.08
2022-08-21T12:51:17.805Z,77.25
2022-08-21T12:52:29.794Z,76.29
2022-08-21T12:53:43.510Z,78.47
2022-08-21T12:54:44.144Z,75.91
2022-08-21T12:55:44.483Z,73.47
2022-08-21T12:56:41.270Z,73.37
2022-08-21T12:57:38.901Z,72.81